Time;durP1;ratioP1;P1;durP2;ratioP2;P2;SDS_P1;SDS_P2;PMS_P1;PMS_P2;Temp;Humidity;BMP_temperature;BMP_pressure;BME280_temperature;BME280_humidity;BME280_pressure;Samples;Min_cycle;Max_cycle;Signal;HPM_P1;HPM_P2
2023/06/16 16:19:16;;;;;;;6.57;3.75;;;28.60;44.60;;;;;;5084234;22;20398;-69
2023/06/16 16:21:45;;;;;;;6.72;4.35;;;28.70;47.80;;;;;;5006577;28;1342181;-69
2023/06/16 16:24:12;;;;;;;5.78;3.50;;;29.10;47.80;;;;;;5027199;28;20037;-69
2023/06/16 16:26:37;;;;;;;6.05;4.20;;;29.70;47.80;;;;;;5048444;28;20043;-69
2023/06/16 16:29:03;;;;;;;5.28;4.15;;;30.50;47.00;;;;;;5048336;28;20097;-69
2023/06/16 16:31:29;;;;;;;5.68;4.15;;;31.20;46.00;;;;;;5046271;28;20060;-69
2023/06/16 16:33:55;;;;;;;4.07;3.50;;;32.00;44.40;;;;;;5047602;28;20507;-72
2023/06/16 16:36:20;;;;;;;4.50;3.60;;;32.50;42.90;;;;;;5032333;28;20061;-69
2023/06/16 16:38:46;;;;;;;6.35;4.13;;;32.90;43.00;;;;;;5043154;28;20068;-70
2023/06/16 16:41:11;;;;;;;5.38;3.65;;;33.40;42.20;;;;;;5048067;28;20025;-71
2023/06/16 16:43:37;;;;;;;5.53;4.22;;;33.80;41.10;;;;;;5049271;28;20033;-71
2023/06/16 16:46:04;;;;;;;6.07;4.13;;;34.20;39.70;;;;;;5033827;28;20037;-72
2023/06/16 16:48:30;;;;;;;5.93;4.25;;;34.60;38.40;;;;;;5029901;28;20040;-71
2023/06/16 16:50:55;;;;;;;10.30;3.58;;;34.90;39.00;;;;;;5047355;28;20034;-72
2023/06/16 16:53:21;;;;;;;5.20;3.70;;;35.10;37.50;;;;;;5048148;28;20075;-70
2023/06/16 16:55:47;;;;;;;4.13;3.72;;;35.20;36.80;;;;;;5046158;28;20479;-71
2023/06/16 16:58:13;;;;;;;5.85;3.75;;;35.10;36.20;;;;;;5047483;28;20029;-70
2023/06/16 17:00:38;;;;;;;4.03;3.60;;;34.60;35.60;;;;;;5048264;28;20029;-71
2023/06/16 17:03:04;;;;;;;4.30;3.58;;;34.10;35.60;;;;;;5030614;28;20025;-72
2023/06/16 17:05:30;;;;;;;4.53;3.80;;;33.50;36.10;;;;;;5048240;28;20056;-71
2023/06/16 17:07:56;;;;;;;6.13;3.40;;;32.90;37.10;;;;;;5044926;28;20044;-70
2023/06/16 17:10:22;;;;;;;6.18;4.68;;;32.30;37.80;;;;;;5047995;28;20421;-72
2023/06/16 17:12:47;;;;;;;7.75;4.00;;;31.70;38.70;;;;;;5048036;28;20045;-71
2023/06/16 17:15:22;;;;;;;5.45;3.97;;;31.10;39.20;;;;;;5048429;28;20039;-70
2023/06/16 17:17:53;;;;;;;5.25;3.38;;;30.50;39.80;;;;;;5030456;28;20033;-70
2023/06/16 17:20:24;;;;;;;4.45;3.50;;;29.90;36.50;;;;;;5030204;28;20037;-71
2023/06/16 17:22:59;;;;;;;5.28;3.40;;;29.30;35.20;;;;;;5047884;28;20037;-72
2023/06/16 17:25:26;;;;;;;18.40;5.13;;;28.70;35.20;;;;;;5047900;28;20388;-71
2023/06/16 17:27:56;;;;;;;6.43;3.70;;;28.30;37.20;;;;;;5035803;28;20037;-69
2023/06/16 17:30:28;;;;;;;8.82;3.90;;;27.60;40.40;;;;;;5014598;28;20030;-72
2023/06/16 17:32:59;;;;;;;5.65;3.92;;;27.10;39.90;;;;;;4997197;28;20540;-70
2023/06/16 17:35:36;;;;;;;5.50;3.85;;;26.50;41.10;;;;;;5015162;28;20072;-73
2023/06/16 17:38:15;;;;;;;10.25;7.03;;;26.00;44.30;;;;;;5014871;28;20021;-72
2023/06/16 17:40:49;;;;;;;12.80;7.15;;;25.40;52.60;;;;;;5015227;28;20469;-72
2023/06/16 17:43:22;;;;;;;11.50;6.82;;;24.90;55.00;;;;;;5014778;28;20037;-72
2023/06/16 17:45:53;;;;;;;9.23;6.72;;;24.40;55.90;;;;;;5014636;28;20030;-73
2023/06/16 17:48:21;;;;;;;9.35;6.50;;;23.90;56.80;;;;;;5014805;28;20397;-73
2023/06/16 17:51:00;;;;;;;10.43;6.68;;;23.40;56.90;;;;;;5014694;28;20026;-73
2023/06/16 17:53:26;;;;;;;7.32;6.38;;;23.00;57.90;;;;;;5014630;28;20030;-73
2023/06/16 17:55:59;;;;;;;7.07;5.28;;;22.60;58.50;;;;;;5014505;28;20029;-73
2023/06/16 17:58:27;;;;;;;5.95;5.38;;;22.30;58.80;;;;;;4996584;28;20029;-74
2023/06/16 18:00:53;;;;;;;10.30;5.50;;;22.10;60.00;;;;;;5014511;28;20034;-72
2023/06/16 18:03:24;;;;;;;7.13;4.35;;;22.00;61.20;;;;;;5014265;28;20385;-72
2023/06/16 18:05:58;;;;;;;6.82;5.35;;;21.70;60.40;;;;;;5014405;28;20025;-73
2023/06/16 18:08:29;;;;;;;7.07;4.78;;;21.60;60.80;;;;;;5014592;28;20034;-73
2023/06/16 18:10:57;;;;;;;7.80;4.60;;;21.50;61.50;;;;;;4996625;28;20030;-73
2023/06/16 18:13:28;;;;;;;7.50;5.32;;;21.40;62.10;;;;;;5031823;28;20018;-73
2023/06/16 18:15:54;;;;;;;11.05;5.68;;;21.30;62.50;;;;;;5034098;28;20029;-71
2023/06/16 18:18:22;;;;;;;8.48;4.72;;;21.20;63.10;;;;;;5031821;28;20031;-72
2023/06/16 18:20:53;;;;;;;13.65;5.40;;;21.20;62.70;;;;;;5030043;28;20477;-71
2023/06/16 18:23:19;;;;;;;10.18;5.45;;;21.10;62.70;;;;;;5033016;28;20036;-71
2023/06/16 18:25:48;;;;;;;8.43;5.30;;;21.10;62.90;;;;;;5034032;28;20021;-72
2023/06/16 18:28:18;;;;;;;7.63;4.72;;;21.10;62.80;;;;;;5034068;28;20030;-72
2023/06/16 18:30:44;;;;;;;8.43;5.80;;;21.10;62.60;;;;;;5033706;28;20487;-72
2023/06/16 18:33:09;;;;;;;8.10;4.60;;;21.10;62.50;;;;;;5033808;28;20025;-71
2023/06/16 18:35:49;;;;;;;7.35;4.35;;;21.10;62.40;;;;;;5033700;28;20111;-70
2023/06/16 18:38:21;;;;;;;7.55;4.03;;;21.10;62.10;;;;;;5017229;28;20052;-70
2023/06/16 18:41:00;;;;;;;10.52;4.53;;;21.10;61.70;;;;;;5032586;28;20030;-69
2023/06/16 18:43:39;;;;;;;8.23;4.47;;;21.10;61.60;;;;;;5032084;28;20136;-70
2023/06/16 18:46:08;;;;;;;8.02;4.60;;;21.10;61.40;;;;;;5033674;28;20026;-69
2023/06/16 18:48:50;;;;;;;7.28;4.55;;;21.10;61.20;;;;;;5033256;28;20499;-69
2023/06/16 18:51:30;;;;;;;17.77;5.57;;;21.10;60.80;;;;;;5014778;28;20034;-69
2023/06/16 18:54:12;;;;;;;7.90;4.78;;;21.10;60.50;;;;;;5016895;28;20025;-69
2023/06/16 18:56:48;;;;;;;7.30;4.82;;;21.10;60.60;;;;;;5033008;28;20040;-71
2023/06/16 18:59:26;;;;;;;10.07;4.70;;;21.10;60.70;;;;;;5015480;28;20037;-69
2023/06/16 19:01:56;;;;;;;7.03;4.47;;;21.00;60.50;;;;;;5052553;28;20375;-69
2023/06/16 19:04:31;;;;;;;11.10;4.88;;;21.00;61.40;;;;;;5052866;28;20021;-70
2023/06/16 19:07:03;;;;;;;7.75;4.28;;;20.90;60.60;;;;;;5053088;28;20090;-70
2023/06/16 19:09:38;;;;;;;6.32;4.15;;;20.90;60.40;;;;;;5052814;28;20032;-72
2023/06/16 19:12:12;;;;;;;7.97;4.57;;;20.90;60.30;;;;;;5052767;28;20376;-70
2023/06/16 19:14:46;;;;;;;6.53;4.35;;;20.80;60.40;;;;;;5052686;28;20057;-71
2023/06/16 19:17:22;;;;;;;5.55;4.28;;;20.70;60.60;;;;;;5034851;28;20104;-70
2023/06/16 19:19:55;;;;;;;9.13;4.50;;;20.70;60.50;;;;;;5052566;28;20099;-70
2023/06/16 19:22:23;;;;;;;8.38;4.00;;;20.70;60.50;;;;;;5052485;28;20021;-70
2023/06/16 19:24:56;;;;;;;10.05;4.18;;;20.70;60.60;;;;;;5038028;28;20032;-70
2023/06/16 19:27:30;;;;;;;6.95;3.92;;;20.60;60.30;;;;;;5020109;28;20033;-69
2023/06/16 19:29:58;;;;;;;7.75;4.47;;;20.50;60.60;;;;;;5044125;28;20036;-69
2023/06/16 19:32:55;;;;;;;6.70;4.13;;;20.40;60.50;;;;;;5032166;28;20293;-71
2023/06/16 19:35:23;;;;;;;7.72;4.88;;;20.40;60.70;;;;;;5047458;28;20049;-71
2023/06/16 19:38:01;;;;;;;9.07;4.72;;;20.30;60.80;;;;;;5047657;28;20025;-71
2023/06/16 19:40:34;;;;;;;7.88;4.95;;;20.30;60.70;;;;;;5050859;28;20032;-69
2023/06/16 19:43:08;;;;;;;6.47;4.23;;;20.20;60.80;;;;;;5050800;28;20497;-70
2023/06/16 19:45:50;;;;;;;7.47;4.40;;;20.10;60.60;;;;;;5051179;28;20261;-72
2023/06/16 19:48:25;;;;;;;6.97;4.75;;;20.10;60.80;;;;;;5030434;28;20047;-70
2023/06/16 19:50:59;;;;;;;5.45;4.10;;;20.00;61.00;;;;;;5050707;28;20116;-69
2023/06/16 19:53:30;;;;;;;;;;;20.00;61.30;;;;;;5052196;28;20021;-69
2023/06/16 19:56:07;;;;;;;5.75;4.50;;;20.00;60.00;;;;;;5034089;28;19909;-69
2023/06/16 19:58:42;;;;;;;5.55;4.10;;;19.90;61.10;;;;;;5051923;28;20029;-69
2023/06/16 20:01:16;;;;;;;4.97;3.88;;;19.90;61.50;;;;;;5052186;28;20029;-69
2023/06/16 20:03:47;;;;;;;14.32;6.00;;;19.80;61.80;;;;;;5052188;28;20147;-70
2023/06/16 20:06:19;;;;;;;7.75;4.68;;;19.80;61.90;;;;;;5052326;28;20107;-68
2023/06/16 20:08:50;;;;;;;7.22;4.78;;;19.70;61.90;;;;;;5051767;28;20083;-69
2023/06/16 20:11:26;;;;;;;7.07;4.60;;;19.70;62.20;;;;;;5050629;28;20029;-70
2023/06/16 20:13:58;;;;;;;7.70;4.55;;;19.60;62.20;;;;;;5049631;28;20041;-69
2023/06/16 20:16:26;;;;;;;6.75;4.22;;;19.60;62.70;;;;;;5050903;28;20070;-69
2023/06/16 20:18:52;;;;;;;8.70;4.35;;;19.60;62.50;;;;;;5049095;28;20057;-71
2023/06/16 20:21:27;;;;;;;6.60;4.85;;;19.50;62.70;;;;;;5051164;28;20409;-70
2023/06/16 20:23:52;;;;;;;6.35;4.10;;;19.50;62.70;;;;;;5050754;28;20032;-69
2023/06/16 20:26:26;;;;;;;5.57;4.43;;;19.50;62.50;;;;;;5035072;28;20380;-69
2023/06/16 20:28:57;;;;;;;8.10;4.68;;;19.50;62.70;;;;;;5051516;28;20083;-70
2023/06/16 20:31:28;;;;;;;11.85;5.32;;;19.50;62.70;;;;;;5052111;28;20029;-69
2023/06/16 20:33:54;;;;;;;5.97;5.07;;;19.40;62.50;;;;;;5050274;28;20040;-68
2023/06/16 20:36:26;;;;;;;5.95;4.60;;;19.40;62.50;;;;;;5050448;28;20104;-69
2023/06/16 20:38:59;;;;;;;7.10;5.32;;;19.40;62.60;;;;;;5051740;28;20128;-69
2023/06/16 20:41:28;;;;;;;6.05;4.53;;;19.40;62.60;;;;;;5051212;28;20067;-69
2023/06/16 20:44:04;;;;;;;5.85;4.68;;;19.30;62.70;;;;;;5050711;28;20025;-69
2023/06/16 20:46:38;;;;;;;10.48;4.70;;;19.30;62.80;;;;;;5051378;28;20032;-69
2023/06/16 20:49:08;;;;;;;7.43;4.68;;;19.30;63.00;;;;;;5051575;28;20033;-69
2023/06/16 20:51:40;;;;;;;5.95;4.47;;;19.30;62.90;;;;;;5049341;28;20029;-69
2023/06/16 20:54:13;;;;;;;6.00;5.25;;;19.20;62.90;;;;;;5050495;28;20112;-69
2023/06/16 20:56:46;;;;;;;6.80;4.50;;;19.20;62.90;;;;;;5040898;28;20025;-68
2023/06/16 20:59:25;;;;;;;8.05;5.10;;;19.20;62.80;;;;;;5049056;28;20072;-68
2023/06/16 21:02:02;;;;;;;6.72;5.20;;;19.20;63.10;;;;;;5029038;28;20465;-69
2023/06/16 21:04:27;;;;;;;6.85;5.07;;;19.20;63.10;;;;;;5032753;28;20053;-68
2023/06/16 21:06:56;;;;;;;9.65;4.85;;;19.20;63.20;;;;;;5017540;28;20067;-69
2023/06/16 21:09:27;;;;;;;6.25;4.75;;;19.10;63.20;;;;;;5054550;28;20049;-69
2023/06/16 21:11:56;;;;;;;10.98;5.55;;;19.10;63.30;;;;;;5054647;28;20028;-69
2023/06/16 21:14:27;;;;;;;8.82;4.72;;;19.10;63.40;;;;;;5053435;28;20490;-68
2023/06/16 21:16:58;;;;;;;6.18;5.10;;;19.00;63.30;;;;;;5054592;28;20098;-70
2023/06/16 21:19:24;;;;;;;8.27;5.60;;;19.00;63.50;;;;;;5052739;28;20025;-68
2023/06/16 21:21:50;;;;;;;7.70;4.65;;;19.00;63.60;;;;;;5052735;28;20051;-69
2023/06/16 21:24:25;;;;;;;5.25;4.60;;;18.90;63.70;;;;;;5053385;28;20028;-69
2023/06/16 21:26:51;;;;;;;6.45;4.78;;;18.90;63.90;;;;;;5050302;28;20029;-68
2023/06/16 21:29:20;;;;;;;8.13;5.75;;;18.90;63.90;;;;;;5053534;28;20468;-68
2023/06/16 21:31:45;;;;;;;6.43;4.93;;;18.80;63.80;;;;;;5036084;28;20021;-69
2023/06/16 21:34:17;;;;;;;8.75;4.40;;;18.80;63.90;;;;;;5052851;28;20112;-68
2023/06/16 21:36:48;;;;;;;10.65;5.25;;;18.80;64.00;;;;;;5053843;28;20070;-68
2023/06/16 21:39:21;;;;;;;8.32;4.28;;;18.70;63.90;;;;;;5053306;28;20036;-69
2023/06/16 21:41:50;;;;;;;8.77;4.80;;;18.70;64.00;;;;;;5051213;28;20036;-69
2023/06/16 21:44:15;;;;;;;15.85;5.20;;;18.70;63.90;;;;;;5053537;28;20063;-68
2023/06/16 21:46:41;;;;;;;6.65;4.90;;;18.60;63.80;;;;;;5053120;28;20103;-69
2023/06/16 21:49:09;;;;;;;5.35;4.15;;;18.60;63.80;;;;;;5053337;28;20071;-69
2023/06/16 21:51:40;;;;;;;6.03;4.55;;;18.60;63.70;;;;;;5035952;28;20021;-69
2023/06/16 21:54:09;;;;;;;6.40;4.80;;;18.60;63.80;;;;;;5051301;28;20029;-69
2023/06/16 21:56:40;;;;;;;7.00;5.10;;;18.60;63.80;;;;;;5053276;28;20025;-69
2023/06/16 21:59:08;;;;;;;6.20;4.53;;;18.60;63.90;;;;;;5052998;28;20056;-69
2023/06/16 22:01:37;;;;;;;6.53;4.28;;;18.50;63.70;;;;;;5035307;28;20032;-69
2023/06/16 22:04:11;;;;;;;5.80;4.45;;;18.50;63.70;;;;;;5051985;28;20515;-69
2023/06/16 22:06:41;;;;;;;9.52;5.68;;;18.50;64.10;;;;;;5049409;28;20025;-68
2023/06/16 22:09:13;;;;;;;7.63;4.60;;;18.50;64.20;;;;;;5034211;28;20037;-68
2023/06/16 22:11:43;;;;;;;12.27;4.65;;;18.50;64.30;;;;;;5035565;28;20048;-69
2023/06/16 22:14:10;;;;;;;8.20;4.95;;;18.40;64.50;;;;;;5052503;28;20025;-68
2023/06/16 22:16:38;;;;;;;7.40;4.82;;;18.50;64.80;;;;;;5053557;28;20033;-69
2023/06/16 22:19:13;;;;;;;5.80;4.95;;;18.40;64.90;;;;;;5053119;28;20468;-69
2023/06/16 22:21:38;;;;;;;8.55;5.40;;;18.30;65.10;;;;;;5053552;28;20451;-69
2023/06/16 22:24:10;;;;;;;11.90;6.07;;;18.30;65.10;;;;;;5052691;28;20097;-69
2023/06/16 22:26:41;;;;;;;9.98;5.13;;;18.30;65.40;;;;;;5035047;28;20388;-69
2023/06/16 22:29:07;;;;;;;8.88;6.03;;;18.30;65.40;;;;;;5052715;28;20492;-69
2023/06/16 22:31:36;;;;;;;9.05;5.35;;;18.30;65.50;;;;;;5034300;28;20025;-69
2023/06/16 22:34:09;;;;;;;8.40;6.22;;;18.20;65.70;;;;;;5034460;28;20116;-69
2023/06/16 22:36:38;;;;;;;8.30;5.80;;;18.20;65.80;;;;;;5052762;28;20032;-71
2023/06/16 22:39:27;;;;;;;13.38;6.72;;;18.20;65.90;;;;;;5034431;28;20129;-69
2023/06/16 22:42:02;;;;;;;7.50;5.80;;;18.20;65.90;;;;;;5040080;28;20036;-69
2023/06/16 22:44:28;;;;;;;5.90;4.88;;;18.10;65.90;;;;;;5052041;28;20494;-68
2023/06/16 22:46:57;;;;;;;6.80;5.00;;;18.10;65.80;;;;;;5051698;28;20021;-69
2023/06/16 22:49:28;;;;;;;7.32;5.80;;;18.10;66.00;;;;;;5052985;28;20112;-69
2023/06/16 22:51:58;;;;;;;6.50;5.45;;;18.10;66.10;;;;;;5052954;28;20368;-69
2023/06/16 22:54:27;;;;;;;7.32;5.90;;;18.10;66.90;;;;;;5034353;28;20082;-70
2023/06/16 22:56:59;;;;;;;5.85;4.93;;;18.10;66.10;;;;;;5048954;28;20029;-70
2023/06/16 22:59:27;;;;;;;8.02;5.72;;;18.00;66.10;;;;;;5049712;28;20086;-69
2023/06/16 23:01:58;;;;;;;8.10;5.93;;;18.10;66.20;;;;;;5051415;28;20446;-69
2023/06/16 23:04:24;;;;;;;11.68;5.70;;;18.10;66.30;;;;;;5052689;28;20060;-70
2023/06/16 23:06:50;;;;;;;9.82;6.03;;;18.00;66.30;;;;;;5052769;28;20025;-70
2023/06/16 23:09:19;;;;;;;9.38;6.28;;;18.00;66.40;;;;;;5052322;28;20025;-70
2023/06/16 23:11:47;;;;;;;7.53;6.05;;;18.00;66.40;;;;;;5052213;28;20059;-69
2023/06/16 23:14:13;;;;;;;7.78;5.45;;;18.00;66.40;;;;;;5051322;28;20097;-69
2023/06/16 23:16:40;;;;;;;10.45;6.95;;;18.00;66.60;;;;;;5052847;28;20520;-69
2023/06/16 23:19:06;;;;;;;11.48;6.97;;;18.00;66.90;;;;;;5034355;28;20396;-71
2023/06/16 23:21:36;;;;;;;9.27;6.85;;;18.00;66.80;;;;;;5034604;28;20029;-69
2023/06/16 23:24:10;;;;;;;11.45;7.97;;;18.00;67.20;;;;;;5052823;28;20024;-69
2023/06/16 23:26:49;;;;;;;7.47;6.13;;;18.00;67.30;;;;;;5041242;28;20029;-70
2023/06/16 23:29:17;;;;;;;7.57;6.47;;;17.90;67.10;;;;;;5032833;28;20400;-69
2023/06/16 23:31:51;;;;;;;6.70;5.70;;;17.90;67.10;;;;;;5034439;28;20031;-69
2023/06/16 23:34:20;;;;;;;;;;;17.90;67.20;;;;;;5052099;28;20376;-69
2023/06/16 23:36:49;;;;;;;7.82;5.72;;;17.90;66.40;;;;;;5051825;28;19909;-68
2023/06/16 23:39:17;;;;;;;8.25;6.32;;;17.90;66.80;;;;;;5052151;28;20027;-68
2023/06/16 23:41:45;;;;;;;10.65;7.63;;;17.90;67.60;;;;;;5034347;28;20384;-69
2023/06/16 23:44:13;;;;;;;9.75;6.90;;;17.90;67.00;;;;;;5034006;28;20473;-69
2023/06/16 23:46:44;;;;;;;9.32;7.35;;;17.80;67.00;;;;;;5051858;28;20025;-68
2023/06/16 23:49:12;;;;;;;8.73;6.35;;;17.80;67.20;;;;;;5048916;28;20067;-69
2023/06/16 23:51:42;;;;;;;13.55;6.32;;;17.80;67.30;;;;;;5051589;28;20017;-69
2023/06/16 23:54:12;;;;;;;8.85;6.22;;;17.80;67.30;;;;;;5051702;28;20068;-69
2023/06/16 23:56:41;;;;;;;9.32;6.93;;;17.80;67.40;;;;;;5031450;28;20024;-68
2023/06/16 23:59:07;;;;;;;8.20;6.45;;;17.80;67.40;;;;;;5049488;28;20033;-70
